createdAt,value
2019-01-25T00:00:13.477Z,37.67
2019-01-25T00:02:41.900Z,34.60
2019-01-25T00:05:10.665Z,40.05
2019-01-25T00:07:39.084Z,41.77
2019-01-25T00:10:09.147Z,40.65
2019-01-25T00:12:37.612Z,37.70
2019-01-25T00:15:09.081Z,37.28
2019-01-25T00:17:37.557Z,36.15
2019-01-25T00:20:11.701Z,34.92
2019-01-25T00:22:40.232Z,36.60
2019-01-25T00:25:09.208Z,35.50
2019-01-25T00:27:37.680Z,35.58
2019-01-25T00:30:15.069Z,37.00
2019-01-25T00:32:43.490Z,36.13
2019-01-25T00:35:11.983Z,37.07
2019-01-25T00:37:40.381Z,36.23
2019-01-25T00:40:14.661Z,37.60
2019-01-25T00:42:43.087Z,39.45
2019-01-25T00:45:12.539Z,37.55
2019-01-25T00:47:40.948Z,37.03
2019-01-25T00:50:12.517Z,38.98
2019-01-25T00:52:40.928Z,36.35
2019-01-25T00:55:09.782Z,34.73
2019-01-25T00:57:38.187Z,37.85
2019-01-25T01:00:09.779Z,36.95
2019-01-25T01:02:38.175Z,34.85
2019-01-25T01:05:07.131Z,36.50
2019-01-25T01:07:35.539Z,39.42
2019-01-25T01:10:06.416Z,36.90
2019-01-25T01:12:34.808Z,39.10
2019-01-25T01:15:05.035Z,37.50
2019-01-25T01:17:33.440Z,37.35
2019-01-25T01:20:01.841Z,37.23
2019-01-25T01:22:30.244Z,35.90
2019-01-25T01:24:58.661Z,35.95
2019-01-25T01:27:27.060Z,36.00
2019-01-25T01:29:55.482Z,37.83
2019-01-25T01:32:23.964Z,38.10
2019-01-25T01:34:52.366Z,37.25
2019-01-25T01:37:20.782Z,37.75
2019-01-25T01:39:49.180Z,35.63
2019-01-25T01:42:17.615Z,35.23
2019-01-25T01:44:46.034Z,39.38
2019-01-25T01:47:14.437Z,34.90
2019-01-25T01:49:42.859Z,35.40
2019-01-25T01:52:11.299Z,38.53
2019-01-25T01:54:39.753Z,37.25
2019-01-25T01:57:08.191Z,36.20
2019-01-25T01:59:36.600Z,34.33
2019-01-25T02:02:05.195Z,34.27
2019-01-25T02:04:33.592Z,38.02
2019-01-25T02:07:02.007Z,34.23
2019-01-25T02:09:30.434Z,36.10
2019-01-25T02:11:58.871Z,34.33
2019-01-25T02:14:27.272Z,34.23
2019-01-25T02:16:55.683Z,35.75
2019-01-25T02:19:24.123Z,35.38
2019-01-25T02:21:52.537Z,37.20
2019-01-25T02:24:20.945Z,37.08
2019-01-25T02:26:49.388Z,35.68
2019-01-25T02:29:17.783Z,36.95
2019-01-25T02:31:46.197Z,35.33
2019-01-25T02:34:14.892Z,34.55
2019-01-25T02:36:43.394Z,35.65
2019-01-25T02:39:11.897Z,40.40
2019-01-25T02:41:40.303Z,40.63
2019-01-25T02:44:08.711Z,40.75
2019-01-25T02:46:37.135Z,41.45
2019-01-25T02:49:05.542Z,44.15
2019-01-25T02:51:34.241Z,43.50
2019-01-25T02:54:02.666Z,41.42
2019-01-25T02:56:31.067Z,42.55
2019-01-25T02:58:59.503Z,40.78
2019-01-25T03:01:27.947Z,40.08
2019-01-25T03:03:56.344Z,39.10
2019-01-25T03:06:24.887Z,39.25
2019-01-25T03:08:53.313Z,39.23
2019-01-25T03:11:21.720Z,39.20
2019-01-25T03:13:50.123Z,40.83
2019-01-25T03:16:18.844Z,39.37
2019-01-25T03:18:47.261Z,38.20
2019-01-25T03:21:15.672Z,40.33
2019-01-25T03:23:44.108Z,40.28
2019-01-25T03:26:12.504Z,37.65
2019-01-25T03:28:40.935Z,41.25
2019-01-25T03:31:09.340Z,38.45
2019-01-25T03:33:37.771Z,40.38
2019-01-25T03:36:06.244Z,42.55
2019-01-25T03:38:34.956Z,38.57
2019-01-25T03:41:03.392Z,39.35
2019-01-25T03:43:31.803Z,37.70
2019-01-25T03:46:00.204Z,37.70
2019-01-25T03:48:28.616Z,39.20
2019-01-25T03:50:57.016Z,40.08
2019-01-25T03:53:25.423Z,38.40
2019-01-25T03:55:53.836Z,38.42
2019-01-25T03:58:22.244Z,38.48
2019-01-25T04:00:50.651Z,36.58
2019-01-25T04:03:19.098Z,40.60
2019-01-25T04:05:47.587Z,38.53
2019-01-25T04:08:16.204Z,39.90
2019-01-25T04:10:44.616Z,39.18
2019-01-25T04:13:13.024Z,40.67
2019-01-25T04:15:41.444Z,39.73
2019-01-25T04:18:09.873Z,39.45
2019-01-25T04:20:38.271Z,42.50
2019-01-25T04:23:06.756Z,43.10
2019-01-25T04:25:35.169Z,42.33
2019-01-25T04:28:03.567Z,40.88
2019-01-25T04:30:33.057Z,37.80
2019-01-25T04:33:01.649Z,40.03
2019-01-25T04:35:30.065Z,41.48
2019-01-25T04:37:58.536Z,40.73
2019-01-25T04:40:27.041Z,37.00
2019-01-25T04:42:55.448Z,38.73
2019-01-25T04:45:24.244Z,38.47
2019-01-25T04:47:52.994Z,38.70
2019-01-25T04:50:23.041Z,43.20
2019-01-25T04:52:51.594Z,40.67
2019-01-25T04:55:24.963Z,41.00
2019-01-25T04:57:53.520Z,38.80
2019-01-25T05:00:23.387Z,42.17
2019-01-25T05:02:59.735Z,45.03
2019-01-25T05:05:29.108Z,44.42
2019-01-25T05:08:06.390Z,43.28
2019-01-25T05:10:35.017Z,50.12
2019-01-25T05:13:03.407Z,39.90
2019-01-25T05:15:31.830Z,40.03
2019-01-25T05:18:00.248Z,43.35
2019-01-25T05:20:28.720Z,43.63
2019-01-25T05:23:01.810Z,40.80
2019-01-25T05:25:30.301Z,41.48
2019-01-25T05:28:04.333Z,45.28
2019-01-25T05:30:32.743Z,41.63
2019-01-25T05:33:01.160Z,44.08
2019-01-25T05:35:34.270Z,41.23
2019-01-25T05:38:02.690Z,43.67
2019-01-25T05:40:31.134Z,47.10
2019-01-25T05:42:59.600Z,46.40
2019-01-25T05:45:28.042Z,44.45
2019-01-25T05:47:56.473Z,38.90
2019-01-25T05:50:24.883Z,43.90
2019-01-25T05:52:53.382Z,41.05
2019-01-25T05:55:22.747Z,43.68
2019-01-25T05:57:54.351Z,44.83
2019-01-25T06:00:30.471Z,41.40
2019-01-25T06:03:04.864Z,45.55
2019-01-25T06:05:33.282Z,44.45
2019-01-25T06:08:01.696Z,50.37
2019-01-25T06:10:34.235Z,47.53
2019-01-25T06:13:02.655Z,43.48
2019-01-25T06:15:31.095Z,47.15
2019-01-25T06:18:01.541Z,52.03
2019-01-25T06:20:30.105Z,45.50
2019-01-25T06:22:58.536Z,40.67
2019-01-25T06:25:26.980Z,42.70
2019-01-25T06:27:55.421Z,47.80
2019-01-25T06:30:23.828Z,46.28
2019-01-25T06:32:52.261Z,50.08
2019-01-25T06:35:20.691Z,53.17
2019-01-25T06:37:49.099Z,49.05
2019-01-25T06:40:17.527Z,38.55
2019-01-25T06:42:45.943Z,43.48
2019-01-25T06:45:14.358Z,46.05
2019-01-25T06:47:42.843Z,42.83
2019-01-25T06:50:13.213Z,38.08
2019-01-25T06:52:41.616Z,39.23
2019-01-25T06:55:10.172Z,48.17
2019-01-25T06:57:58.295Z,39.65
2019-01-25T07:00:31.304Z,44.30
2019-01-25T07:02:59.719Z,33.35
2019-01-25T07:05:28.135Z,42.58
2019-01-25T07:07:56.531Z,43.05
2019-01-25T07:10:25.028Z,44.20
2019-01-25T07:12:53.453Z,41.15
2019-01-25T07:15:23.524Z,41.02
2019-01-25T07:17:51.934Z,42.48
2019-01-25T07:20:20.344Z,41.92
2019-01-25T07:22:48.751Z,44.75
2019-01-25T07:25:17.230Z,47.30
2019-01-25T07:27:45.792Z,44.50
2019-01-25T07:30:16.403Z,46.40
2019-01-25T07:32:45.304Z,45.78
2019-01-25T07:35:13.874Z,44.30
2019-01-25T07:37:42.343Z,45.52
2019-01-25T07:40:11.441Z,45.78
2019-01-25T07:42:39.882Z,44.77
2019-01-25T07:45:11.256Z,44.55
2019-01-25T07:47:40.026Z,47.15
2019-01-25T07:50:10.424Z,47.50
2019-01-25T07:52:38.972Z,47.75
2019-01-25T07:55:12.288Z,46.27
2019-01-25T07:57:40.825Z,46.70
2019-01-25T08:00:12.040Z,50.75
2019-01-25T08:02:40.458Z,43.80
2019-01-25T08:05:10.615Z,47.55
2019-01-25T08:07:39.554Z,41.15
2019-01-25T08:10:11.255Z,46.68
2019-01-25T08:12:39.728Z,43.48
2019-01-25T08:15:11.202Z,35.70
2019-01-25T08:17:39.632Z,37.15
2019-01-25T08:20:10.941Z,34.08
2019-01-25T08:22:39.354Z,39.92
2019-01-25T08:25:08.992Z,43.40
2019-01-25T08:27:37.438Z,50.43
2019-01-25T08:30:14.786Z,41.95
2019-01-25T08:32:43.272Z,45.12
2019-01-25T08:35:13.278Z,53.00
2019-01-25T08:37:41.868Z,41.88
2019-01-25T08:40:13.018Z,67.70
2019-01-25T08:42:41.521Z,32.90
2019-01-25T08:45:12.660Z,36.68
2019-01-25T08:47:41.092Z,45.78
2019-01-25T08:50:24.734Z,42.05
2019-01-25T08:52:53.643Z,47.98
2019-01-25T08:55:22.179Z,46.33
2019-01-25T08:57:50.671Z,37.70
2019-01-25T09:00:23.495Z,37.28
2019-01-25T09:02:52.149Z,34.75
2019-01-25T09:05:20.547Z,40.65
2019-01-25T09:07:48.983Z,41.85
2019-01-25T09:10:23.050Z,36.65
2019-01-25T09:12:51.460Z,33.35
2019-01-25T09:15:25.581Z,34.38
2019-01-25T09:17:54.019Z,36.68
2019-01-25T09:20:22.800Z,33.80
2019-01-25T09:22:51.216Z,38.45
2019-01-25T09:25:19.682Z,36.83
2019-01-25T09:27:48.678Z,70.20
2019-01-25T09:30:25.767Z,43.42
2019-01-25T09:32:54.414Z,30.20
2019-01-25T09:35:23.056Z,33.63
2019-01-25T09:37:52.060Z,29.27
2019-01-25T09:40:23.210Z,35.13
2019-01-25T09:42:52.019Z,34.90
2019-01-25T09:45:20.890Z,34.27
2019-01-25T09:47:49.300Z,35.63
2019-01-25T09:50:20.527Z,37.25
2019-01-25T09:52:48.950Z,32.97
2019-01-25T09:55:19.586Z,33.70
2019-01-25T09:57:48.337Z,37.75
2019-01-25T10:00:19.833Z,38.88
2019-01-25T10:02:48.245Z,40.87
2019-01-25T10:05:17.063Z,35.70
2019-01-25T10:07:45.475Z,35.98
2019-01-25T10:10:14.325Z,41.20
2019-01-25T10:12:43.530Z,38.37
2019-01-25T10:15:15.504Z,38.48
2019-01-25T10:17:44.012Z,31.77
2019-01-25T10:20:12.981Z,30.30
2019-01-25T10:22:41.392Z,47.70
2019-01-25T10:25:11.055Z,48.33
2019-01-25T10:27:39.517Z,36.17
2019-01-25T10:30:25.651Z,33.65
2019-01-25T10:32:54.061Z,32.05
2019-01-25T10:35:22.811Z,30.12
2019-01-25T10:37:52.103Z,36.73
2019-01-25T10:40:22.728Z,34.50
2019-01-25T10:42:53.444Z,32.05
2019-01-25T10:45:36.371Z,36.17
2019-01-25T10:48:05.716Z,37.55
2019-01-25T10:50:34.452Z,36.38
2019-01-25T10:53:02.901Z,35.68
2019-01-25T10:55:31.315Z,44.15
2019-01-25T10:57:59.725Z,38.75
2019-01-25T11:00:29.148Z,34.48
2019-01-25T11:02:58.561Z,38.08
2019-01-25T11:05:29.050Z,35.92
2019-01-25T11:07:57.428Z,43.58
2019-01-25T11:10:26.157Z,48.87
2019-01-25T11:13:00.843Z,47.15
2019-01-25T11:15:25.515Z,56.63
2019-01-25T11:17:53.917Z,44.42
2019-01-25T11:20:26.064Z,43.33
2019-01-25T11:22:54.539Z,59.98
2019-01-25T11:25:31.498Z,59.35
2019-01-25T11:28:00.271Z,50.78
2019-01-25T11:30:28.887Z,43.38
2019-01-25T11:32:57.300Z,43.63
2019-01-25T11:35:25.719Z,47.00
2019-01-25T11:37:54.199Z,47.30
2019-01-25T11:40:34.168Z,40.53
2019-01-25T11:43:08.515Z,43.28
2019-01-25T11:45:32.752Z,44.30
2019-01-25T11:48:01.202Z,48.28
2019-01-25T11:50:29.611Z,43.87
2019-01-25T11:52:58.043Z,45.23
2019-01-25T11:55:26.554Z,44.63
2019-01-25T11:57:54.987Z,42.60
2019-01-25T12:00:29.661Z,37.23
2019-01-25T12:02:58.075Z,37.60
2019-01-25T12:05:26.493Z,40.03
2019-01-25T12:07:55.764Z,38.30
2019-01-25T12:10:26.868Z,40.50
2019-01-25T12:12:55.315Z,48.45
2019-01-25T12:15:23.721Z,41.15
2019-01-25T12:17:52.137Z,40.25
2019-01-25T12:20:25.395Z,44.25
2019-01-25T12:22:54.068Z,40.92
2019-01-25T12:25:22.563Z,41.97
2019-01-25T12:27:51.041Z,44.33
2019-01-25T12:30:30.734Z,42.33
2019-01-25T12:32:59.539Z,45.85
2019-01-25T12:35:33.236Z,45.30
2019-01-25T12:38:01.660Z,44.33
2019-01-25T12:40:30.065Z,48.05
2019-01-25T12:42:58.474Z,48.35
2019-01-25T12:45:31.027Z,48.83
2019-01-25T12:47:59.460Z,53.73
2019-01-25T12:50:40.020Z,64.50
2019-01-25T12:53:10.500Z,49.83
2019-01-25T12:55:39.082Z,51.40
2019-01-25T12:58:07.662Z,60.52
2019-01-25T13:00:36.127Z,53.40
2019-01-25T13:03:05.284Z,52.62
2019-01-25T13:05:33.680Z,56.00
2019-01-25T13:08:02.106Z,54.67
2019-01-25T13:10:30.496Z,58.75
2019-01-25T13:12:58.975Z,56.37
2019-01-25T13:15:27.418Z,53.00
2019-01-25T13:17:55.904Z,52.30
2019-01-25T13:20:31.179Z,53.78
2019-01-25T13:22:59.581Z,52.38
2019-01-25T13:25:27.989Z,48.65
2019-01-25T13:27:56.474Z,51.13
2019-01-25T13:30:27.482Z,53.97
2019-01-25T13:32:55.915Z,47.88
2019-01-25T13:35:24.464Z,47.78
2019-01-25T13:37:53.046Z,51.37
2019-01-25T13:40:23.397Z,58.25
2019-01-25T13:42:51.937Z,52.30
2019-01-25T13:45:21.988Z,58.60
2019-01-25T13:47:50.530Z,55.67
2019-01-25T13:50:21.672Z,60.40
2019-01-25T13:52:50.136Z,55.17
2019-01-25T13:55:19.181Z,58.93
2019-01-25T13:57:47.595Z,64.62
2019-01-25T14:00:22.927Z,56.42
2019-01-25T14:02:51.619Z,60.30
2019-01-25T14:05:20.100Z,57.05
2019-01-25T14:07:48.649Z,55.88
2019-01-25T14:10:26.029Z,59.60
2019-01-25T14:12:54.473Z,64.30
2019-01-25T14:15:22.975Z,63.38
2019-01-25T14:17:51.371Z,59.73
2019-01-25T14:20:24.978Z,66.97
2019-01-25T14:22:53.461Z,61.90
2019-01-25T14:25:22.356Z,70.72
2019-01-25T14:27:51.136Z,67.62
2019-01-25T14:30:31.439Z,71.07
2019-01-25T14:32:59.935Z,72.95
2019-01-25T14:35:28.548Z,67.35
2019-01-25T14:37:56.962Z,71.80
2019-01-25T14:40:25.387Z,76.77
2019-01-25T14:42:53.864Z,73.10
2019-01-25T14:45:22.284Z,72.53
2019-01-25T14:47:50.712Z,67.67
2019-01-25T14:50:21.840Z,77.87
2019-01-25T14:52:50.237Z,72.72
2019-01-25T14:55:18.975Z,80.75
2019-01-25T14:57:47.384Z,78.13
2019-01-25T15:00:16.473Z,73.07
2019-01-25T15:02:44.966Z,87.22
2019-01-25T15:05:16.280Z,76.10
2019-01-25T15:07:44.777Z,82.20
2019-01-25T15:10:16.206Z,76.50
2019-01-25T15:12:45.560Z,81.63
2019-01-25T15:15:14.964Z,78.52
2019-01-25T15:17:43.596Z,75.57
2019-01-25T15:20:20.719Z,77.75
2019-01-25T15:22:49.133Z,77.12
2019-01-25T15:25:17.816Z,78.40
2019-01-25T15:27:46.296Z,78.22
2019-01-25T15:30:20.556Z,73.90
2019-01-25T15:32:49.097Z,76.55
2019-01-25T15:35:19.912Z,76.03
2019-01-25T15:37:48.604Z,76.90
2019-01-25T15:40:19.197Z,68.97
2019-01-25T15:42:47.920Z,68.62
2019-01-25T15:45:18.701Z,67.08
2019-01-25T15:47:47.216Z,78.12
2019-01-25T15:50:21.173Z,76.73
2019-01-25T15:52:49.941Z,68.65
2019-01-25T15:55:18.966Z,70.17
2019-01-25T15:57:47.385Z,63.87
2019-01-25T16:00:21.091Z,57.65
2019-01-25T16:02:49.599Z,71.57
2019-01-25T16:05:19.758Z,66.42
2019-01-25T16:07:49.810Z,58.40
2019-01-25T16:10:22.925Z,59.95
2019-01-25T16:12:52.015Z,60.50
2019-01-25T16:15:28.036Z,58.90
2019-01-25T16:17:56.665Z,58.73
2019-01-25T16:20:25.066Z,55.95
2019-01-25T16:22:54.736Z,61.33
2019-01-25T16:25:25.813Z,54.95
2019-01-25T16:27:54.661Z,57.35
2019-01-25T16:30:28.739Z,61.53
2019-01-25T16:32:57.182Z,60.03
2019-01-25T16:35:25.575Z,59.87
2019-01-25T16:37:54.003Z,60.33
2019-01-25T16:40:27.959Z,62.80
2019-01-25T16:42:56.699Z,58.52
2019-01-25T16:45:39.703Z,56.50
2019-01-25T16:48:08.903Z,58.08
2019-01-25T16:50:37.320Z,58.30
2019-01-25T16:53:07.772Z,51.65
2019-01-25T16:55:36.200Z,57.33
2019-01-25T16:58:04.973Z,63.17
2019-01-25T17:00:41.753Z,64.22
2019-01-25T17:03:10.228Z,62.35
2019-01-25T17:05:38.652Z,55.30
2019-01-25T17:08:07.310Z,55.98
2019-01-25T17:10:36.100Z,54.13
2019-01-25T17:13:04.977Z,58.50
2019-01-25T17:15:33.468Z,60.63
2019-01-25T17:18:01.880Z,60.03
2019-01-25T17:20:30.430Z,59.18
2019-01-25T17:22:59.102Z,57.33
2019-01-25T17:25:27.522Z,55.35
2019-01-25T17:27:55.938Z,57.23
2019-01-25T17:30:27.417Z,57.20
2019-01-25T17:32:57.463Z,62.60
2019-01-25T17:35:25.883Z,57.13
2019-01-25T17:37:54.371Z,58.03
2019-01-25T17:40:25.783Z,64.50
2019-01-25T17:42:54.279Z,59.77
2019-01-25T17:45:22.710Z,58.28
2019-01-25T17:47:51.141Z,57.60
2019-01-25T17:50:19.691Z,59.40
2019-01-25T17:52:48.119Z,56.13
2019-01-25T17:55:17.671Z,56.98
2019-01-25T17:57:46.091Z,56.37
2019-01-25T18:00:17.806Z,52.90
2019-01-25T18:02:46.226Z,57.67
2019-01-25T18:05:14.663Z,58.00
2019-01-25T18:07:44.276Z,56.55
2019-01-25T18:10:21.267Z,54.33
2019-01-25T18:12:49.669Z,55.60
2019-01-25T18:15:18.457Z,51.23
2019-01-25T18:17:47.135Z,57.00
2019-01-25T18:20:18.056Z,55.17
2019-01-25T18:22:46.460Z,56.13
2019-01-25T18:25:45.211Z,51.88
2019-01-25T18:28:16.691Z,56.88
2019-01-25T18:30:48.180Z,52.20
2019-01-25T18:33:16.580Z,52.83
2019-01-25T18:35:45.010Z,60.00
2019-01-25T18:38:13.415Z,53.50
2019-01-25T18:40:41.835Z,57.38
2019-01-25T18:43:10.264Z,53.35
2019-01-25T18:45:38.683Z,54.05
2019-01-25T18:48:07.170Z,54.45
2019-01-25T18:50:35.603Z,53.87
2019-01-25T18:53:04.294Z,55.75
2019-01-25T18:55:32.712Z,53.47
2019-01-25T18:58:01.116Z,53.63
2019-01-25T19:00:29.863Z,54.42
2019-01-25T19:02:58.287Z,53.42
2019-01-25T19:05:26.696Z,50.05
2019-01-25T19:07:55.103Z,51.42
2019-01-25T19:10:30.103Z,53.90
2019-01-25T19:12:58.549Z,52.35
2019-01-25T19:15:33.211Z,54.80
2019-01-25T19:18:01.635Z,54.48
2019-01-25T19:20:30.070Z,52.88
2019-01-25T19:22:58.472Z,51.50
2019-01-25T19:25:26.899Z,56.13
2019-01-25T19:27:55.312Z,48.20
2019-01-25T19:30:31.788Z,54.53
2019-01-25T19:33:00.221Z,49.50
2019-01-25T19:35:28.629Z,50.35
2019-01-25T19:37:57.493Z,57.08
2019-01-25T19:40:31.719Z,50.90
2019-01-25T19:43:00.210Z,55.60
2019-01-25T19:45:28.887Z,55.00
2019-01-25T19:47:57.315Z,54.95
2019-01-25T19:50:25.792Z,52.13
2019-01-25T19:52:54.573Z,56.28
2019-01-25T19:55:25.785Z,59.50
2019-01-25T19:57:54.360Z,57.53
2019-01-25T20:00:28.135Z,62.25
2019-01-25T20:02:56.625Z,58.05
2019-01-25T20:05:32.293Z,58.28
2019-01-25T20:08:01.336Z,61.73
2019-01-25T20:10:29.749Z,58.40
2019-01-25T20:12:58.332Z,63.53
2019-01-25T20:15:27.676Z,61.53
2019-01-25T20:17:56.457Z,60.60
2019-01-25T20:20:33.731Z,58.55
2019-01-25T20:23:02.149Z,62.88
2019-01-25T20:25:30.555Z,62.20
2019-01-25T20:27:59.071Z,61.42
2019-01-25T20:30:29.440Z,66.42
2019-01-25T20:32:58.019Z,61.27
2019-01-25T20:35:32.228Z,62.23
2019-01-25T20:38:00.627Z,63.70
2019-01-25T20:40:29.099Z,69.07
2019-01-25T20:42:57.551Z,69.12
2019-01-25T20:45:28.696Z,66.05
2019-01-25T20:47:57.124Z,67.92
2019-01-25T20:50:27.564Z,68.67
2019-01-25T20:52:56.379Z,70.80
2019-01-25T20:55:25.289Z,73.45
2019-01-25T20:57:54.551Z,73.90
2019-01-25T21:00:31.783Z,78.15
2019-01-25T21:03:00.492Z,74.03
2019-01-25T21:05:29.007Z,72.58
2019-01-25T21:07:57.499Z,74.70
2019-01-25T21:10:26.504Z,73.85
2019-01-25T21:12:55.080Z,74.95
2019-01-25T21:15:25.727Z,77.42
2019-01-25T21:17:54.591Z,76.65
2019-01-25T21:20:25.899Z,77.15
2019-01-25T21:22:54.335Z,75.83
2019-01-25T21:25:22.742Z,77.25
2019-01-25T21:27:51.156Z,74.15
2019-01-25T21:30:22.712Z,71.40
2019-01-25T21:32:51.195Z,75.80
2019-01-25T21:35:19.662Z,72.50
2019-01-25T21:37:48.108Z,74.35
2019-01-25T21:40:19.224Z,74.37
2019-01-25T21:42:47.704Z,77.42
2019-01-25T21:45:21.298Z,71.37
2019-01-25T21:47:50.052Z,72.05
2019-01-25T21:50:21.539Z,78.00
2019-01-25T21:52:49.947Z,76.40
2019-01-25T21:55:18.430Z,75.95
2019-01-25T21:57:46.931Z,78.65
2019-01-25T22:00:26.780Z,78.47
2019-01-25T22:02:55.219Z,72.30
2019-01-25T22:05:23.884Z,76.30
2019-01-25T22:07:52.682Z,80.00
2019-01-25T22:10:26.716Z,78.52
2019-01-25T22:12:55.139Z,78.35
2019-01-25T22:15:23.569Z,78.65
2019-01-25T22:17:52.044Z,73.60
2019-01-25T22:20:25.772Z,74.72
2019-01-25T22:22:54.237Z,70.13
2019-01-25T22:25:22.892Z,70.85
2019-01-25T22:27:52.631Z,64.07
2019-01-25T22:30:23.215Z,75.40
2019-01-25T22:32:52.056Z,73.60
2019-01-25T22:35:20.617Z,73.50
2019-01-25T22:37:49.022Z,71.30
2019-01-25T22:40:19.878Z,71.20
2019-01-25T22:42:48.296Z,70.40
2019-01-25T22:45:19.712Z,73.70
2019-01-25T22:47:48.257Z,74.97
2019-01-25T22:50:21.843Z,67.90
2019-01-25T22:52:50.394Z,74.82
2019-01-25T22:55:21.489Z,75.67
2019-01-25T22:57:50.227Z,76.95
2019-01-25T23:00:35.380Z,73.20
2019-01-25T23:03:04.080Z,69.22
2019-01-25T23:05:59.883Z,72.45
2019-01-25T23:08:28.285Z,66.75
2019-01-25T23:10:56.708Z,68.97
2019-01-25T23:13:25.151Z,66.70
2019-01-25T23:15:53.571Z,64.32
2019-01-25T23:18:21.967Z,65.80
2019-01-25T23:20:50.414Z,68.42
2019-01-25T23:23:18.835Z,70.07
2019-01-25T23:25:47.264Z,72.43
2019-01-25T23:28:15.659Z,71.53
2019-01-25T23:30:44.101Z,66.03
2019-01-25T23:33:12.519Z,69.53
2019-01-25T23:35:40.927Z,67.30
2019-01-25T23:38:09.407Z,67.35
2019-01-25T23:40:37.843Z,67.72
2019-01-25T23:43:06.248Z,60.25
2019-01-25T23:45:34.659Z,58.25
2019-01-25T23:48:03.135Z,58.50
2019-01-25T23:50:31.564Z,58.70
2019-01-25T23:52:59.958Z,53.15
2019-01-25T23:55:28.382Z,51.25
2019-01-25T23:57:56.801Z,47.50
